createdAt,value
2019-04-11T00:03:33.511Z,0.49
2019-04-11T00:08:41.935Z,0.58
2019-04-11T00:13:51.440Z,0.44
2019-04-11T00:18:59.160Z,0.35
2019-04-11T00:24:08.333Z,0.68
2019-04-11T00:29:18.477Z,0.48
2019-04-11T00:34:26.880Z,0.50
2019-04-11T00:39:35.418Z,0.40
2019-04-11T00:44:45.259Z,0.76
2019-04-11T00:49:53.231Z,0.61
2019-04-11T00:55:03.048Z,0.49
2019-04-11T01:00:11.222Z,0.65
2019-04-11T01:05:21.377Z,0.34
2019-04-11T01:10:29.988Z,0.64
2019-04-11T01:15:38.595Z,0.54
2019-04-11T01:20:47.989Z,0.57
2019-04-11T01:25:55.627Z,0.59
2019-04-11T01:31:05.222Z,0.59
2019-04-11T01:36:13.763Z,0.77
2019-04-11T01:41:22.913Z,0.72
2019-04-11T01:46:32.117Z,0.56
2019-04-11T01:51:42.159Z,0.58
2019-04-11T01:56:50.273Z,0.88
2019-04-11T02:01:59.583Z,0.84
2019-04-11T02:07:10.075Z,0.58
2019-04-11T02:12:18.237Z,0.51
2019-04-11T02:17:26.529Z,0.60
2019-04-11T02:22:35.916Z,0.94
2019-04-11T02:27:46.101Z,0.51
2019-04-11T02:32:54.070Z,0.71
2019-04-11T02:38:04.879Z,0.71
2019-04-11T02:43:13.203Z,0.64
2019-04-11T02:48:21.318Z,0.95
2019-04-11T02:53:32.082Z,0.64
2019-04-11T02:58:39.935Z,0.72
2019-04-11T03:03:49.675Z,0.78
2019-04-11T03:08:57.580Z,0.43
2019-04-11T03:14:05.425Z,0.47
2019-04-11T03:19:28.477Z,0.77
2019-04-11T03:24:24.491Z,0.47
2019-04-11T03:29:33.347Z,0.60
2019-04-11T03:40:06.043Z,1.04
2019-04-11T03:45:20.423Z,0.54
2019-04-11T03:50:12.676Z,0.51
2019-04-11T03:55:16.568Z,0.63
2019-04-11T04:00:29.880Z,0.62
2019-04-11T04:05:36.594Z,0.65
2019-04-11T04:10:43.598Z,0.75
2019-04-11T04:15:59.663Z,0.53
2019-04-11T04:21:01.829Z,0.75
2019-04-11T04:26:10.590Z,0.52
2019-04-11T04:31:18.534Z,0.51
2019-04-11T04:36:28.561Z,0.68
2019-04-11T04:41:41.418Z,0.71
2019-04-11T04:46:58.521Z,0.67
2019-04-11T04:51:53.887Z,0.71
2019-04-11T04:57:04.963Z,0.57
2019-04-11T05:02:03.877Z,0.59
2019-04-11T05:07:12.211Z,0.47
2019-04-11T05:12:22.603Z,0.66
2019-04-11T05:17:30.444Z,0.66
2019-04-11T05:22:39.942Z,0.66
2019-04-11T05:27:49.690Z,0.67
2019-04-11T05:33:01.734Z,0.59
2019-04-11T05:37:59.898Z,0.66
2019-04-11T05:43:08.046Z,0.46
2019-04-11T05:48:17.797Z,0.55
2019-04-11T05:53:27.844Z,0.54
2019-04-11T05:58:36.569Z,0.45
2019-04-11T06:03:45.420Z,0.77
2019-04-11T06:08:56.214Z,0.62
2019-04-11T06:14:03.805Z,0.53
2019-04-11T06:19:12.334Z,0.48
2019-04-11T06:24:20.297Z,0.45
2019-04-11T06:29:29.610Z,0.39
2019-04-11T06:34:38.132Z,0.68
2019-04-11T06:39:47.519Z,0.47
2019-04-11T06:44:56.799Z,0.82
2019-04-11T06:50:06.896Z,0.55
2019-04-11T06:55:14.935Z,0.72
2019-04-11T07:00:25.122Z,0.72
2019-04-11T07:05:33.185Z,0.72
2019-04-11T07:10:42.532Z,0.64
2019-04-11T07:15:50.635Z,0.79
2019-04-11T07:21:00.662Z,0.60
2019-04-11T07:26:08.725Z,0.62
2019-04-11T07:31:19.223Z,0.51
2019-04-11T07:36:27.393Z,0.47
2019-04-11T07:41:35.966Z,0.81
2019-04-11T07:46:45.050Z,0.52
2019-04-11T07:51:54.407Z,0.81
2019-04-11T07:57:04.169Z,0.63
2019-04-11T08:02:12.709Z,0.73
2019-04-11T08:07:22.172Z,0.62
2019-04-11T08:12:31.742Z,0.70
2019-04-11T08:17:42.509Z,0.66
2019-04-11T08:22:49.601Z,0.55
2019-04-11T08:28:01.303Z,0.66
2019-04-11T08:33:08.029Z,0.63
2019-04-11T08:38:16.183Z,0.74
2019-04-11T08:43:24.576Z,0.72
2019-04-11T08:48:33.020Z,0.43
2019-04-11T08:53:42.731Z,0.69
2019-04-11T08:58:51.052Z,0.40
2019-04-11T09:04:04.453Z,0.71
2019-04-11T09:09:09.165Z,0.50
2019-04-11T09:14:17.421Z,0.51
2019-04-11T09:19:27.232Z,0.30
2019-04-11T09:24:37.230Z,0.57
2019-04-11T09:29:37.814Z,0.44
2019-04-11T09:34:46.028Z,0.32
2019-04-11T09:39:55.215Z,0.36
2019-04-11T09:45:03.608Z,0.46
2019-04-11T09:50:12.973Z,0.20
2019-04-11T09:55:23.309Z,0.46
2019-04-11T10:00:31.360Z,0.62
2019-04-11T10:05:40.790Z,0.90
2019-04-11T10:10:51.101Z,0.55
2019-04-11T10:15:59.781Z,0.55
2019-04-11T10:21:08.988Z,0.75
2019-04-11T10:26:18.027Z,0.92
2019-04-11T10:31:26.281Z,0.67
2019-04-11T10:36:34.922Z,0.41
2019-04-11T10:41:44.192Z,0.23
2019-04-11T10:46:52.502Z,0.39
2019-04-11T10:52:02.419Z,0.62
2019-04-11T10:57:11.822Z,0.53
2019-04-11T11:02:20.938Z,0.69
2019-04-11T11:07:28.766Z,0.53
2019-04-11T11:12:38.206Z,0.51
2019-04-11T11:22:56.371Z,0.51
2019-04-11T11:28:05.784Z,0.65
2019-04-11T11:33:16.091Z,0.44
2019-04-11T11:38:24.228Z,0.41
2019-04-11T11:43:33.574Z,0.56
2019-04-11T11:48:46.020Z,0.53
2019-04-11T11:53:51.741Z,0.42
2019-04-11T11:59:01.211Z,0.54
2019-04-11T12:04:10.791Z,0.51
2019-04-11T12:09:20.387Z,0.29
2019-04-11T12:14:29.584Z,0.43
2019-04-11T12:19:48.448Z,0.50
2019-04-11T12:24:46.541Z,0.80
2019-04-11T12:29:55.778Z,0.43
2019-04-11T12:35:06.108Z,0.50
2019-04-11T12:40:14.083Z,0.34
2019-04-11T12:45:23.526Z,0.92
2019-04-11T12:50:32.885Z,0.45
2019-04-11T12:55:42.258Z,0.41
2019-04-11T13:00:51.453Z,0.31
2019-04-11T13:06:00.741Z,0.79
2019-04-11T13:11:10.185Z,0.48
2019-04-11T13:16:19.649Z,0.50
2019-04-11T13:21:29.093Z,0.35
2019-04-11T13:26:38.333Z,0.41
2019-04-11T13:31:47.617Z,0.35
2019-04-11T13:36:56.843Z,0.72
2019-04-11T13:42:06.321Z,0.28
2019-04-11T13:47:15.551Z,0.56
2019-04-11T13:52:25.040Z,0.57
2019-04-11T13:57:34.328Z,0.28
2019-04-11T14:02:51.126Z,0.63
2019-04-11T14:07:52.458Z,0.55
2019-04-11T14:13:03.469Z,0.47
2019-04-11T14:18:11.721Z,0.54
2019-04-11T14:23:19.745Z,0.42
2019-04-11T14:28:29.170Z,0.38
2019-04-11T14:33:38.730Z,0.41
2019-04-11T14:38:50.792Z,0.45
2019-04-11T14:43:56.970Z,0.41
2019-04-11T14:49:10.219Z,0.69
2019-04-11T14:54:17.610Z,0.48
2019-04-11T14:59:24.826Z,0.39
2019-04-11T15:04:32.779Z,0.50
2019-04-11T15:09:42.015Z,0.57
2019-04-11T15:14:51.900Z,0.43
2019-04-11T15:20:02.330Z,0.34
2019-04-11T15:25:09.206Z,0.57
2019-04-11T15:30:18.638Z,0.34
2019-04-11T15:35:27.998Z,0.44
2019-04-11T15:40:37.328Z,0.31
2019-04-11T15:45:46.774Z,0.47
2019-04-11T15:51:06.053Z,0.42
2019-04-11T15:56:07.675Z,0.51
2019-04-11T16:01:13.234Z,0.36
2019-04-11T16:06:22.513Z,0.63
2019-04-11T16:11:31.881Z,0.52
2019-04-11T16:16:42.322Z,0.82
2019-04-11T16:21:50.206Z,0.31
2019-04-11T16:27:05.658Z,0.23
2019-04-11T16:32:03.688Z,0.79
2019-04-11T16:37:09.063Z,0.47
2019-04-11T16:42:09.563Z,0.64
2019-04-11T16:47:08.748Z,0.63
2019-04-11T16:52:18.198Z,0.57
2019-04-11T16:57:27.422Z,0.50
2019-04-11T17:02:36.797Z,0.81
2019-04-11T17:07:46.028Z,0.67
2019-04-11T17:12:56.081Z,0.66
2019-04-11T17:18:04.324Z,0.38
2019-04-11T17:23:13.749Z,0.69
2019-04-11T17:28:23.647Z,0.47
2019-04-11T17:33:32.053Z,0.42
2019-04-11T17:38:41.419Z,0.44
2019-04-11T17:43:52.860Z,0.36
2019-04-11T17:48:52.119Z,0.31
2019-04-11T17:54:01.713Z,0.39
2019-04-11T17:59:12.238Z,0.34
2019-04-11T18:04:20.012Z,0.38
2019-04-11T18:09:29.425Z,0.46
2019-04-11T18:14:38.676Z,0.37
2019-04-11T18:19:48.044Z,0.31
2019-04-11T18:24:57.274Z,0.38
2019-04-11T18:30:06.684Z,0.36
2019-04-11T18:35:16.096Z,0.53
2019-04-11T18:40:25.679Z,0.39
2019-04-11T18:45:35.125Z,0.46
2019-04-11T18:50:44.496Z,0.49
2019-04-11T18:55:53.723Z,0.57
2019-04-11T19:01:03.140Z,0.53
2019-04-11T19:06:13.083Z,0.38
2019-04-11T19:11:21.348Z,0.53
2019-04-11T19:16:30.717Z,0.35
2019-04-11T19:21:40.082Z,0.60
2019-04-11T19:26:49.521Z,0.50
2019-04-11T19:31:58.779Z,0.45
2019-04-11T19:37:11.691Z,0.45
2019-04-11T19:42:19.652Z,0.59
2019-04-11T19:47:26.155Z,0.54
2019-04-11T19:52:45.212Z,0.41
2019-04-11T19:57:44.229Z,0.66
2019-04-11T20:02:54.161Z,0.55
2019-04-11T20:08:02.523Z,0.73
2019-04-11T20:13:12.229Z,0.63
2019-04-11T20:18:22.701Z,0.71
2019-04-11T20:23:30.308Z,0.80
2019-04-11T20:28:39.708Z,0.52
2019-04-11T20:33:49.074Z,0.51
2019-04-11T20:38:58.370Z,0.35
2019-04-11T20:44:07.869Z,0.39
2019-04-11T20:49:17.142Z,0.77
2019-04-11T20:54:26.443Z,0.50
2019-04-11T20:59:38.184Z,0.85
2019-04-11T21:04:44.557Z,0.47
2019-04-11T21:09:53.873Z,0.46
2019-04-11T21:15:03.275Z,0.69
2019-04-11T21:20:12.491Z,1.46
2019-04-11T21:25:21.843Z,0.72
2019-04-11T21:30:31.194Z,0.48
2019-04-11T21:35:40.513Z,0.78
2019-04-11T21:40:49.712Z,0.78
2019-04-11T21:45:59.006Z,0.95
2019-04-11T21:51:11.119Z,1.07
2019-04-11T21:56:18.656Z,1.28
2019-04-11T22:01:26.026Z,1.00
2019-04-11T22:06:35.307Z,1.01
2019-04-11T22:11:44.540Z,0.84
2019-04-11T22:16:55.001Z,0.96
2019-04-11T22:22:02.752Z,1.32
2019-04-11T22:27:11.935Z,1.21
2019-04-11T22:32:21.345Z,0.93
2019-04-11T22:37:30.685Z,0.84
2019-04-11T22:42:39.806Z,1.13
2019-04-11T22:47:49.105Z,1.42
2019-04-11T22:52:58.366Z,1.41
2019-04-11T22:58:07.538Z,1.32
2019-04-11T23:03:17.045Z,0.92
2019-04-11T23:08:25.585Z,2.17
2019-04-11T23:13:34.845Z,1.41
2019-04-11T23:18:44.810Z,1.42
2019-04-11T23:23:53.148Z,1.34
2019-04-11T23:29:02.325Z,1.83
2019-04-11T23:34:11.581Z,1.76
2019-04-11T23:39:22.732Z,1.27
2019-04-11T23:44:29.742Z,1.63
2019-04-11T23:49:38.985Z,1.66
2019-04-11T23:54:48.370Z,1.42
2019-04-11T23:59:59.805Z,1.35
